sensor_id;sensor_type;location;lat;lon;timestamp;temperature;humidity
48515;DHT22;34309;47.260;2.796;2023-05-10T00:01:08;23.50;31.60
48515;DHT22;34309;47.260;2.796;2023-05-10T00:03:42;23.50;31.60
48515;DHT22;34309;47.260;2.796;2023-05-10T00:06:16;23.50;31.60
48515;DHT22;34309;47.260;2.796;2023-05-10T00:08:50;23.50;31.60
48515;DHT22;34309;47.260;2.796;2023-05-10T00:11:24;23.50;31.60
48515;DHT22;34309;47.260;2.796;2023-05-10T00:13:59;23.50;31.40
48515;DHT22;34309;47.260;2.796;2023-05-10T00:16:33;23.50;31.60
48515;DHT22;34309;47.260;2.796;2023-05-10T00:19:07;23.50;31.50
48515;DHT22;34309;47.260;2.796;2023-05-10T00:21:40;23.50;31.50
48515;DHT22;34309;47.260;2.796;2023-05-10T00:24:14;23.50;31.40
48515;DHT22;34309;47.260;2.796;2023-05-10T00:26:48;23.50;31.40
48515;DHT22;34309;47.260;2.796;2023-05-10T00:29:23;23.50;31.50
48515;DHT22;34309;47.260;2.796;2023-05-10T00:31:57;23.50;31.50
48515;DHT22;34309;47.260;2.796;2023-05-10T00:34:31;23.50;31.50
48515;DHT22;34309;47.260;2.796;2023-05-10T00:37:05;23.50;31.40
48515;DHT22;34309;47.260;2.796;2023-05-10T00:39:38;23.50;31.40
48515;DHT22;34309;47.260;2.796;2023-05-10T00:42:12;23.50;31.40
48515;DHT22;34309;47.260;2.796;2023-05-10T00:44:47;23.50;31.50
48515;DHT22;34309;47.260;2.796;2023-05-10T00:47:22;23.50;31.60
48515;DHT22;34309;47.260;2.796;2023-05-10T00:49:56;23.50;31.50
48515;DHT22;34309;47.260;2.796;2023-05-10T00:52:30;23.50;31.40
48515;DHT22;34309;47.260;2.796;2023-05-10T00:55:05;23.50;31.50
48515;DHT22;34309;47.260;2.796;2023-05-10T00:57:39;23.50;31.30
48515;DHT22;34309;47.260;2.796;2023-05-10T01:00:15;23.50;31.50
48515;DHT22;34309;47.260;2.796;2023-05-10T01:02:50;23.50;31.50
48515;DHT22;34309;47.260;2.796;2023-05-10T01:05:23;23.50;31.50
48515;DHT22;34309;47.260;2.796;2023-05-10T01:07:59;23.50;31.40
48515;DHT22;34309;47.260;2.796;2023-05-10T01:10:33;23.50;31.30
48515;DHT22;34309;47.260;2.796;2023-05-10T01:13:07;23.50;31.30
48515;DHT22;34309;47.260;2.796;2023-05-10T01:15:42;23.50;31.30
48515;DHT22;34309;47.260;2.796;2023-05-10T01:18:19;23.50;31.40
48515;DHT22;34309;47.260;2.796;2023-05-10T01:21:00;23.50;31.30
48515;DHT22;34309;47.260;2.796;2023-05-10T01:27:11;23.50;31.30
48515;DHT22;34309;47.260;2.796;2023-05-10T01:33:11;23.50;31.40
48515;DHT22;34309;47.260;2.796;2023-05-10T01:35:53;23.50;31.30
48515;DHT22;34309;47.260;2.796;2023-05-10T01:38:36;23.50;31.20
48515;DHT22;34309;47.260;2.796;2023-05-10T01:41:14;23.50;31.20
48515;DHT22;34309;47.260;2.796;2023-05-10T01:43:56;23.50;31.30
48515;DHT22;34309;47.260;2.796;2023-05-10T01:46:35;23.50;31.30
48515;DHT22;34309;47.260;2.796;2023-05-10T01:49:16;23.40;31.20
48515;DHT22;34309;47.260;2.796;2023-05-10T01:51:56;23.40;31.20
48515;DHT22;34309;47.260;2.796;2023-05-10T01:54:33;23.50;31.40
48515;DHT22;34309;47.260;2.796;2023-05-10T01:57:09;23.50;31.40
48515;DHT22;34309;47.260;2.796;2023-05-10T01:59:46;23.40;31.20
48515;DHT22;34309;47.260;2.796;2023-05-10T02:02:20;23.50;31.30
48515;DHT22;34309;47.260;2.796;2023-05-10T02:04:56;23.40;31.30
48515;DHT22;34309;47.260;2.796;2023-05-10T02:07:32;23.50;31.40
48515;DHT22;34309;47.260;2.796;2023-05-10T02:10:09;23.40;31.30
48515;DHT22;34309;47.260;2.796;2023-05-10T02:12:44;23.40;31.20
48515;DHT22;34309;47.260;2.796;2023-05-10T02:15:22;23.40;31.30
48515;DHT22;34309;47.260;2.796;2023-05-10T02:17:58;23.40;31.20
48515;DHT22;34309;47.260;2.796;2023-05-10T02:20:35;23.40;31.30
48515;DHT22;34309;47.260;2.796;2023-05-10T02:23:10;23.40;31.10
48515;DHT22;34309;47.260;2.796;2023-05-10T02:25:45;23.40;31.20
48515;DHT22;34309;47.260;2.796;2023-05-10T02:28:21;23.40;31.30
48515;DHT22;34309;47.260;2.796;2023-05-10T02:30:57;23.40;31.20
48515;DHT22;34309;47.260;2.796;2023-05-10T02:33:32;23.40;31.10
48515;DHT22;34309;47.260;2.796;2023-05-10T02:36:03;23.30;31.30
48515;DHT22;34309;47.260;2.796;2023-05-10T02:38:37;23.40;31.10
48515;DHT22;34309;47.260;2.796;2023-05-10T02:41:12;23.30;31.30
48515;DHT22;34309;47.260;2.796;2023-05-10T02:43:47;23.40;31.40
48515;DHT22;34309;47.260;2.796;2023-05-10T02:46:23;23.30;31.30
48515;DHT22;34309;47.260;2.796;2023-05-10T02:48:57;23.30;31.30
48515;DHT22;34309;47.260;2.796;2023-05-10T02:51:35;23.40;31.30
48515;DHT22;34309;47.260;2.796;2023-05-10T02:54:12;23.30;31.10
48515;DHT22;34309;47.260;2.796;2023-05-10T02:56:49;23.30;31.10
48515;DHT22;34309;47.260;2.796;2023-05-10T02:59:24;23.40;31.20
48515;DHT22;34309;47.260;2.796;2023-05-10T03:01:58;23.30;31.10
48515;DHT22;34309;47.260;2.796;2023-05-10T03:04:32;23.30;31.00
48515;DHT22;34309;47.260;2.796;2023-05-10T03:07:07;23.30;31.10
48515;DHT22;34309;47.260;2.796;2023-05-10T03:09:36;23.30;30.90
48515;DHT22;34309;47.260;2.796;2023-05-10T03:12:14;23.30;31.00
48515;DHT22;34309;47.260;2.796;2023-05-10T03:14:56;23.30;31.00
48515;DHT22;34309;47.260;2.796;2023-05-10T03:17:39;23.30;31.10
48515;DHT22;34309;47.260;2.796;2023-05-10T03:20:22;23.30;31.70
48515;DHT22;34309;47.260;2.796;2023-05-10T03:23:04;23.30;31.70
48515;DHT22;34309;47.260;2.796;2023-05-10T03:25:38;23.30;30.90
48515;DHT22;34309;47.260;2.796;2023-05-10T03:28:16;23.30;31.00
48515;DHT22;34309;47.260;2.796;2023-05-10T03:30:52;23.30;31.10
48515;DHT22;34309;47.260;2.796;2023-05-10T03:33:27;23.30;30.90
48515;DHT22;34309;47.260;2.796;2023-05-10T03:36:00;23.30;30.90
48515;DHT22;34309;47.260;2.796;2023-05-10T03:38:35;23.30;30.90
48515;DHT22;34309;47.260;2.796;2023-05-10T03:41:09;23.30;31.00
48515;DHT22;34309;47.260;2.796;2023-05-10T03:43:42;23.30;31.00
48515;DHT22;34309;47.260;2.796;2023-05-10T03:46:16;23.30;30.90
48515;DHT22;34309;47.260;2.796;2023-05-10T03:48:50;23.30;31.60
48515;DHT22;34309;47.260;2.796;2023-05-10T03:51:23;23.30;30.80
48515;DHT22;34309;47.260;2.796;2023-05-10T03:54:04;23.30;30.90
48515;DHT22;34309;47.260;2.796;2023-05-10T03:56:38;23.30;31.00
48515;DHT22;34309;47.260;2.796;2023-05-10T03:59:11;23.30;31.00
48515;DHT22;34309;47.260;2.796;2023-05-10T04:01:45;23.20;30.70
48515;DHT22;34309;47.260;2.796;2023-05-10T04:04:14;23.20;30.70
48515;DHT22;34309;47.260;2.796;2023-05-10T04:06:47;23.20;30.90
48515;DHT22;34309;47.260;2.796;2023-05-10T04:09:23;23.20;30.70
48515;DHT22;34309;47.260;2.796;2023-05-10T04:11:58;23.20;30.80
48515;DHT22;34309;47.260;2.796;2023-05-10T04:14:34;23.20;30.60
48515;DHT22;34309;47.260;2.796;2023-05-10T04:17:07;23.20;30.70
48515;DHT22;34309;47.260;2.796;2023-05-10T04:19:41;23.20;30.70
48515;DHT22;34309;47.260;2.796;2023-05-10T04:22:15;23.20;30.80
48515;DHT22;34309;47.260;2.796;2023-05-10T04:24:50;23.20;30.80
48515;DHT22;34309;47.260;2.796;2023-05-10T04:27:24;23.20;30.70
48515;DHT22;34309;47.260;2.796;2023-05-10T04:29:58;23.20;30.90
48515;DHT22;34309;47.260;2.796;2023-05-10T04:32:32;23.20;30.80
48515;DHT22;34309;47.260;2.796;2023-05-10T04:35:06;23.20;30.90
48515;DHT22;34309;47.260;2.796;2023-05-10T04:37:40;23.20;30.80
48515;DHT22;34309;47.260;2.796;2023-05-10T04:40:15;23.20;30.70
48515;DHT22;34309;47.260;2.796;2023-05-10T04:42:49;23.20;30.90
48515;DHT22;34309;47.260;2.796;2023-05-10T04:45:23;23.20;30.80
48515;DHT22;34309;47.260;2.796;2023-05-10T04:47:57;23.20;30.90
48515;DHT22;34309;47.260;2.796;2023-05-10T04:50:30;23.20;30.90
48515;DHT22;34309;47.260;2.796;2023-05-10T04:53:05;23.20;30.70
48515;DHT22;34309;47.260;2.796;2023-05-10T04:55:40;23.10;30.80
48515;DHT22;34309;47.260;2.796;2023-05-10T04:58:14;23.10;30.80
48515;DHT22;34309;47.260;2.796;2023-05-10T05:00:47;23.20;30.70
48515;DHT22;34309;47.260;2.796;2023-05-10T05:03:21;23.10;30.70
48515;DHT22;34309;47.260;2.796;2023-05-10T05:05:50;23.10;30.70
48515;DHT22;34309;47.260;2.796;2023-05-10T05:08:24;23.20;30.70
48515;DHT22;34309;47.260;2.796;2023-05-10T05:10:59;23.10;30.50
48515;DHT22;34309;47.260;2.796;2023-05-10T05:13:33;23.10;30.60
48515;DHT22;34309;47.260;2.796;2023-05-10T05:16:07;23.10;30.60
48515;DHT22;34309;47.260;2.796;2023-05-10T05:18:41;23.10;30.70
48515;DHT22;34309;47.260;2.796;2023-05-10T05:21:15;23.10;30.70
48515;DHT22;34309;47.260;2.796;2023-05-10T05:23:49;23.10;30.70
48515;DHT22;34309;47.260;2.796;2023-05-10T05:26:25;23.10;30.70
48515;DHT22;34309;47.260;2.796;2023-05-10T05:28:59;23.10;30.50
48515;DHT22;34309;47.260;2.796;2023-05-10T05:31:33;23.10;30.60
48515;DHT22;34309;47.260;2.796;2023-05-10T05:34:07;23.10;30.50
48515;DHT22;34309;47.260;2.796;2023-05-10T05:36:41;23.10;30.60
48515;DHT22;34309;47.260;2.796;2023-05-10T05:39:14;23.10;30.50
48515;DHT22;34309;47.260;2.796;2023-05-10T05:41:49;23.10;30.50
48515;DHT22;34309;47.260;2.796;2023-05-10T05:44:23;23.10;30.50
48515;DHT22;34309;47.260;2.796;2023-05-10T05:46:57;23.10;30.50
48515;DHT22;34309;47.260;2.796;2023-05-10T05:49:31;23.10;30.50
48515;DHT22;34309;47.260;2.796;2023-05-10T05:52:05;23.10;30.40
48515;DHT22;34309;47.260;2.796;2023-05-10T05:54:39;23.10;30.50
48515;DHT22;34309;47.260;2.796;2023-05-10T05:57:14;23.10;30.50
48515;DHT22;34309;47.260;2.796;2023-05-10T05:59:48;23.10;30.70
48515;DHT22;34309;47.260;2.796;2023-05-10T06:02:22;23.10;30.60
48515;DHT22;34309;47.260;2.796;2023-05-10T06:04:55;23.10;30.50
48515;DHT22;34309;47.260;2.796;2023-05-10T06:07:29;23.00;30.50
48515;DHT22;34309;47.260;2.796;2023-05-10T06:10:03;23.00;30.50
48515;DHT22;34309;47.260;2.796;2023-05-10T06:12:39;23.00;30.50
48515;DHT22;34309;47.260;2.796;2023-05-10T06:15:13;23.00;30.50
48515;DHT22;34309;47.260;2.796;2023-05-10T06:17:46;23.00;30.50
48515;DHT22;34309;47.260;2.796;2023-05-10T06:20:21;23.00;30.50
48515;DHT22;34309;47.260;2.796;2023-05-10T06:22:55;23.00;30.40
48515;DHT22;34309;47.260;2.796;2023-05-10T06:25:29;23.00;30.40
48515;DHT22;34309;47.260;2.796;2023-05-10T06:28:04;23.00;30.40
48515;DHT22;34309;47.260;2.796;2023-05-10T06:30:38;23.00;30.30
48515;DHT22;34309;47.260;2.796;2023-05-10T06:33:11;23.00;30.60
48515;DHT22;34309;47.260;2.796;2023-05-10T06:35:45;23.00;30.60
48515;DHT22;34309;47.260;2.796;2023-05-10T06:38:19;23.00;30.50
48515;DHT22;34309;47.260;2.796;2023-05-10T06:40:52;23.00;30.60
48515;DHT22;34309;47.260;2.796;2023-05-10T06:43:28;23.00;30.50
48515;DHT22;34309;47.260;2.796;2023-05-10T06:46:01;23.00;30.50
48515;DHT22;34309;47.260;2.796;2023-05-10T06:48:35;23.00;30.40
48515;DHT22;34309;47.260;2.796;2023-05-10T06:51:09;23.00;30.50
48515;DHT22;34309;47.260;2.796;2023-05-10T06:53:43;22.90;30.40
48515;DHT22;34309;47.260;2.796;2023-05-10T06:56:16;23.00;30.50
48515;DHT22;34309;47.260;2.796;2023-05-10T06:58:51;22.90;30.30
48515;DHT22;34309;47.260;2.796;2023-05-10T07:01:25;22.90;30.40
48515;DHT22;34309;47.260;2.796;2023-05-10T07:03:59;22.90;30.30
48515;DHT22;34309;47.260;2.796;2023-05-10T07:06:32;22.90;30.30
48515;DHT22;34309;47.260;2.796;2023-05-10T07:09:06;23.00;30.50
48515;DHT22;34309;47.260;2.796;2023-05-10T07:11:41;22.90;30.50
48515;DHT22;34309;47.260;2.796;2023-05-10T07:14:16;22.90;30.50
48515;DHT22;34309;47.260;2.796;2023-05-10T07:16:49;22.90;30.30
48515;DHT22;34309;47.260;2.796;2023-05-10T07:19:23;22.90;30.30
48515;DHT22;34309;47.260;2.796;2023-05-10T07:21:56;22.90;30.40
48515;DHT22;34309;47.260;2.796;2023-05-10T07:24:30;22.90;30.30
48515;DHT22;34309;47.260;2.796;2023-05-10T07:27:04;22.90;30.50
48515;DHT22;34309;47.260;2.796;2023-05-10T07:29:39;22.90;30.40
48515;DHT22;34309;47.260;2.796;2023-05-10T07:32:13;22.90;30.30
48515;DHT22;34309;47.260;2.796;2023-05-10T07:34:46;22.90;30.50
48515;DHT22;34309;47.260;2.796;2023-05-10T07:37:20;22.90;30.40
48515;DHT22;34309;47.260;2.796;2023-05-10T07:39:54;22.80;30.30
48515;DHT22;34309;47.260;2.796;2023-05-10T07:42:28;22.90;30.30
48515;DHT22;34309;47.260;2.796;2023-05-10T07:45:04;22.80;30.40
48515;DHT22;34309;47.260;2.796;2023-05-10T07:47:38;22.80;30.30
48515;DHT22;34309;47.260;2.796;2023-05-10T07:50:11;22.90;30.60
48515;DHT22;34309;47.260;2.796;2023-05-10T07:52:45;22.80;31.00
48515;DHT22;34309;47.260;2.796;2023-05-10T07:55:19;22.80;30.20
48515;DHT22;34309;47.260;2.796;2023-05-10T07:57:54;22.80;30.30
48515;DHT22;34309;47.260;2.796;2023-05-10T08:00:29;22.80;30.30
48515;DHT22;34309;47.260;2.796;2023-05-10T08:03:03;22.80;30.40
48515;DHT22;34309;47.260;2.796;2023-05-10T08:05:37;22.80;30.40
48515;DHT22;34309;47.260;2.796;2023-05-10T08:08:11;22.80;30.30
48515;DHT22;34309;47.260;2.796;2023-05-10T08:10:44;22.80;30.40
48515;DHT22;34309;47.260;2.796;2023-05-10T08:13:18;22.80;30.40
48515;DHT22;34309;47.260;2.796;2023-05-10T08:15:54;22.80;30.40
48515;DHT22;34309;47.260;2.796;2023-05-10T08:18:27;22.80;30.40
48515;DHT22;34309;47.260;2.796;2023-05-10T08:20:56;22.80;30.40
48515;DHT22;34309;47.260;2.796;2023-05-10T08:23:30;22.80;30.20
48515;DHT22;34309;47.260;2.796;2023-05-10T08:26:04;22.80;30.40
48515;DHT22;34309;47.260;2.796;2023-05-10T08:28:37;22.80;30.30
48515;DHT22;34309;47.260;2.796;2023-05-10T08:31:13;22.80;30.10
48515;DHT22;34309;47.260;2.796;2023-05-10T08:33:47;22.80;30.30
48515;DHT22;34309;47.260;2.796;2023-05-10T08:36:23;22.80;30.30
48515;DHT22;34309;47.260;2.796;2023-05-10T08:38:57;22.80;31.00
48515;DHT22;34309;47.260;2.796;2023-05-10T08:41:33;22.80;30.20
48515;DHT22;34309;47.260;2.796;2023-05-10T08:44:09;22.80;30.30
48515;DHT22;34309;47.260;2.796;2023-05-10T08:46:47;22.80;30.20
48515;DHT22;34309;47.260;2.796;2023-05-10T08:49:23;22.70;30.20
48515;DHT22;34309;47.260;2.796;2023-05-10T08:52:03;22.80;30.30
48515;DHT22;34309;47.260;2.796;2023-05-10T08:54:38;22.80;30.20
48515;DHT22;34309;47.260;2.796;2023-05-10T08:57:13;22.80;30.40
48515;DHT22;34309;47.260;2.796;2023-05-10T08:59:47;22.80;30.50
48515;DHT22;34309;47.260;2.796;2023-05-10T09:02:18;22.70;30.40
48515;DHT22;34309;47.260;2.796;2023-05-10T09:04:53;22.70;30.40
48515;DHT22;34309;47.260;2.796;2023-05-10T09:07:27;22.80;30.50
48515;DHT22;34309;47.260;2.796;2023-05-10T09:10:05;22.80;30.60
48515;DHT22;34309;47.260;2.796;2023-05-10T09:12:39;22.70;30.50
48515;DHT22;34309;47.260;2.796;2023-05-10T09:15:15;22.80;30.70
48515;DHT22;34309;47.260;2.796;2023-05-10T09:17:52;22.80;30.70
48515;DHT22;34309;47.260;2.796;2023-05-10T09:20:28;22.70;30.60
48515;DHT22;34309;47.260;2.796;2023-05-10T09:23:02;22.70;31.50
48515;DHT22;34309;47.260;2.796;2023-05-10T09:25:36;22.80;30.60
48515;DHT22;34309;47.260;2.796;2023-05-10T09:28:12;22.70;30.60
48515;DHT22;34309;47.260;2.796;2023-05-10T09:30:53;22.70;30.80
48515;DHT22;34309;47.260;2.796;2023-05-10T09:33:29;22.70;30.70
48515;DHT22;34309;47.260;2.796;2023-05-10T09:36:17;22.70;30.70
48515;DHT22;34309;47.260;2.796;2023-05-10T09:38:54;22.70;30.90
48515;DHT22;34309;47.260;2.796;2023-05-10T09:41:28;22.70;30.70
48515;DHT22;34309;47.260;2.796;2023-05-10T09:44:02;22.70;30.70
48515;DHT22;34309;47.260;2.796;2023-05-10T09:46:36;22.70;30.70
48515;DHT22;34309;47.260;2.796;2023-05-10T09:49:14;22.70;30.90
48515;DHT22;34309;47.260;2.796;2023-05-10T09:51:57;22.70;30.80
48515;DHT22;34309;47.260;2.796;2023-05-10T09:54:33;22.70;30.70
48515;DHT22;34309;47.260;2.796;2023-05-10T09:57:19;22.70;30.60
48515;DHT22;34309;47.260;2.796;2023-05-10T09:59:53;22.70;30.70
48515;DHT22;34309;47.260;2.796;2023-05-10T10:02:28;22.70;30.60
48515;DHT22;34309;47.260;2.796;2023-05-10T10:05:05;22.70;30.80
48515;DHT22;34309;47.260;2.796;2023-05-10T10:07:34;22.70;30.90
48515;DHT22;34309;47.260;2.796;2023-05-10T10:10:09;22.70;30.80
48515;DHT22;34309;47.260;2.796;2023-05-10T10:12:44;22.70;30.80
48515;DHT22;34309;47.260;2.796;2023-05-10T10:15:19;22.70;31.10
48515;DHT22;34309;47.260;2.796;2023-05-10T10:17:53;22.70;30.80
48515;DHT22;34309;47.260;2.796;2023-05-10T10:20:29;22.70;30.70
48515;DHT22;34309;47.260;2.796;2023-05-10T10:23:03;22.70;30.80
48515;DHT22;34309;47.260;2.796;2023-05-10T10:25:38;22.70;30.80
48515;DHT22;34309;47.260;2.796;2023-05-10T10:28:21;22.70;30.90
48515;DHT22;34309;47.260;2.796;2023-05-10T10:31:02;22.70;30.70
48515;DHT22;34309;47.260;2.796;2023-05-10T10:33:44;22.70;30.80
48515;DHT22;34309;47.260;2.796;2023-05-10T10:36:25;22.70;30.80
48515;DHT22;34309;47.260;2.796;2023-05-10T10:39:01;22.70;30.80
48515;DHT22;34309;47.260;2.796;2023-05-10T10:41:38;22.70;30.70
48515;DHT22;34309;47.260;2.796;2023-05-10T10:44:36;22.70;30.60
48515;DHT22;34309;47.260;2.796;2023-05-10T10:47:21;22.70;30.70
48515;DHT22;34309;47.260;2.796;2023-05-10T10:50:06;22.70;31.30
48515;DHT22;34309;47.260;2.796;2023-05-10T10:52:43;22.70;30.70
48515;DHT22;34309;47.260;2.796;2023-05-10T10:55:18;22.70;30.60
48515;DHT22;34309;47.260;2.796;2023-05-10T10:57:55;22.70;30.40
48515;DHT22;34309;47.260;2.796;2023-05-10T11:00:33;22.70;30.50
48515;DHT22;34309;47.260;2.796;2023-05-10T11:03:10;22.70;30.50
48515;DHT22;34309;47.260;2.796;2023-05-10T11:05:47;22.70;30.50
48515;DHT22;34309;47.260;2.796;2023-05-10T11:08:27;22.70;30.50
48515;DHT22;34309;47.260;2.796;2023-05-10T11:11:06;22.70;30.40
48515;DHT22;34309;47.260;2.796;2023-05-10T11:13:41;22.70;30.40
48515;DHT22;34309;47.260;2.796;2023-05-10T11:16:17;22.70;30.60
48515;DHT22;34309;47.260;2.796;2023-05-10T11:19:09;22.70;30.60
48515;DHT22;34309;47.260;2.796;2023-05-10T11:21:48;22.70;30.70
48515;DHT22;34309;47.260;2.796;2023-05-10T11:24:27;22.70;30.70
48515;DHT22;34309;47.260;2.796;2023-05-10T11:27:01;22.70;30.70
48515;DHT22;34309;47.260;2.796;2023-05-10T11:29:35;22.70;30.60
48515;DHT22;34309;47.260;2.796;2023-05-10T11:32:09;22.70;30.60
48515;DHT22;34309;47.260;2.796;2023-05-10T11:34:47;22.70;30.80
48515;DHT22;34309;47.260;2.796;2023-05-10T11:37:21;22.70;31.30
48515;DHT22;34309;47.260;2.796;2023-05-10T11:39:56;22.70;30.70
48515;DHT22;34309;47.260;2.796;2023-05-10T11:42:30;22.70;30.70
48515;DHT22;34309;47.260;2.796;2023-05-10T11:45:05;22.70;30.90
48515;DHT22;34309;47.260;2.796;2023-05-10T11:47:39;22.70;30.80
48515;DHT22;34309;47.260;2.796;2023-05-10T11:50:15;22.70;30.80
48515;DHT22;34309;47.260;2.796;2023-05-10T11:52:51;22.70;31.20
48515;DHT22;34309;47.260;2.796;2023-05-10T11:55:26;22.70;31.10
48515;DHT22;34309;47.260;2.796;2023-05-10T11:58:02;22.70;31.40
48515;DHT22;34309;47.260;2.796;2023-05-10T12:00:36;22.80;31.80
48515;DHT22;34309;47.260;2.796;2023-05-10T12:03:10;22.70;31.90
48515;DHT22;34309;47.260;2.796;2023-05-10T12:05:44;22.80;32.10
48515;DHT22;34309;47.260;2.796;2023-05-10T12:08:21;22.80;32.20
48515;DHT22;34309;47.260;2.796;2023-05-10T12:11:05;22.80;32.60
48515;DHT22;34309;47.260;2.796;2023-05-10T12:13:39;22.80;32.40
48515;DHT22;34309;47.260;2.796;2023-05-10T12:16:15;22.80;32.50
48515;DHT22;34309;47.260;2.796;2023-05-10T12:18:49;22.90;32.90
48515;DHT22;34309;47.260;2.796;2023-05-10T12:21:24;22.90;33.00
48515;DHT22;34309;47.260;2.796;2023-05-10T12:24:01;22.90;33.00
48515;DHT22;34309;47.260;2.796;2023-05-10T12:26:36;22.90;33.00
48515;DHT22;34309;47.260;2.796;2023-05-10T12:29:23;22.90;33.10
48515;DHT22;34309;47.260;2.796;2023-05-10T12:32:09;23.00;33.50
48515;DHT22;34309;47.260;2.796;2023-05-10T12:34:46;23.00;33.50
48515;DHT22;34309;47.260;2.796;2023-05-10T12:37:24;22.90;33.40
48515;DHT22;34309;47.260;2.796;2023-05-10T12:40:00;23.00;33.60
48515;DHT22;34309;47.260;2.796;2023-05-10T12:42:31;23.00;33.60
48515;DHT22;34309;47.260;2.796;2023-05-10T12:45:05;23.00;33.60
48515;DHT22;34309;47.260;2.796;2023-05-10T12:47:39;23.00;33.60
48515;DHT22;34309;47.260;2.796;2023-05-10T12:50:13;23.10;33.70
48515;DHT22;34309;47.260;2.796;2023-05-10T12:52:47;23.10;33.60
48515;DHT22;34309;47.260;2.796;2023-05-10T12:55:21;23.10;33.60
48515;DHT22;34309;47.260;2.796;2023-05-10T12:57:56;23.10;33.70
48515;DHT22;34309;47.260;2.796;2023-05-10T13:00:30;23.10;33.80
48515;DHT22;34309;47.260;2.796;2023-05-10T13:03:04;23.10;33.80
48515;DHT22;34309;47.260;2.796;2023-05-10T13:05:38;23.20;34.00
48515;DHT22;34309;47.260;2.796;2023-05-10T13:08:12;23.10;34.50
48515;DHT22;34309;47.260;2.796;2023-05-10T13:10:46;23.20;33.90
48515;DHT22;34309;47.260;2.796;2023-05-10T13:13:21;23.20;33.80
48515;DHT22;34309;47.260;2.796;2023-05-10T13:15:55;23.20;33.80
48515;DHT22;34309;47.260;2.796;2023-05-10T13:18:29;23.20;33.90
48515;DHT22;34309;47.260;2.796;2023-05-10T13:21:03;23.20;33.80
48515;DHT22;34309;47.260;2.796;2023-05-10T13:23:37;23.20;33.80
48515;DHT22;34309;47.260;2.796;2023-05-10T13:26:11;23.20;33.80
48515;DHT22;34309;47.260;2.796;2023-05-10T13:28:46;23.20;33.90
48515;DHT22;34309;47.260;2.796;2023-05-10T13:31:21;23.30;33.90
48515;DHT22;34309;47.260;2.796;2023-05-10T13:33:56;23.30;33.90
48515;DHT22;34309;47.260;2.796;2023-05-10T13:36:29;23.30;33.80
48515;DHT22;34309;47.260;2.796;2023-05-10T13:39:03;23.30;33.80
48515;DHT22;34309;47.260;2.796;2023-05-10T13:41:37;23.30;33.80
48515;DHT22;34309;47.260;2.796;2023-05-10T13:44:14;23.30;33.90
48515;DHT22;34309;47.260;2.796;2023-05-10T13:46:47;23.30;33.90
48515;DHT22;34309;47.260;2.796;2023-05-10T13:49:21;23.30;33.90
48515;DHT22;34309;47.260;2.796;2023-05-10T13:51:55;23.30;34.10
48515;DHT22;34309;47.260;2.796;2023-05-10T13:54:29;23.30;34.10
48515;DHT22;34309;47.260;2.796;2023-05-10T13:56:58;23.40;34.30
48515;DHT22;34309;47.260;2.796;2023-05-10T13:59:34;23.40;34.20
48515;DHT22;34309;47.260;2.796;2023-05-10T14:02:08;23.40;35.00
48515;DHT22;34309;47.260;2.796;2023-05-10T14:04:43;23.40;34.30
48515;DHT22;34309;47.260;2.796;2023-05-10T14:07:17;23.40;34.30
48515;DHT22;34309;47.260;2.796;2023-05-10T14:09:51;23.50;34.30
48515;DHT22;34309;47.260;2.796;2023-05-10T14:12:25;23.50;34.40
48515;DHT22;34309;47.260;2.796;2023-05-10T14:15:00;23.50;34.40
48515;DHT22;34309;47.260;2.796;2023-05-10T14:17:34;23.50;34.40
48515;DHT22;34309;47.260;2.796;2023-05-10T14:20:08;23.50;34.30
48515;DHT22;34309;47.260;2.796;2023-05-10T14:22:43;23.50;34.50
48515;DHT22;34309;47.260;2.796;2023-05-10T14:25:11;23.50;34.40
48515;DHT22;34309;47.260;2.796;2023-05-10T14:27:46;23.50;34.40
48515;DHT22;34309;47.260;2.796;2023-05-10T14:30:16;23.50;34.40
48515;DHT22;34309;47.260;2.796;2023-05-10T14:32:45;23.60;34.60
48515;DHT22;34309;47.260;2.796;2023-05-10T14:35:19;23.60;34.40
48515;DHT22;34309;47.260;2.796;2023-05-10T14:37:53;23.60;34.30
48515;DHT22;34309;47.260;2.796;2023-05-10T14:40:27;23.60;34.60
48515;DHT22;34309;47.260;2.796;2023-05-10T14:43:01;23.60;34.60
48515;DHT22;34309;47.260;2.796;2023-05-10T14:45:36;23.60;34.40
48515;DHT22;34309;47.260;2.796;2023-05-10T14:48:09;23.60;34.30
48515;DHT22;34309;47.260;2.796;2023-05-10T14:50:47;23.60;34.20
48515;DHT22;34309;47.260;2.796;2023-05-10T14:53:21;23.60;34.30
48515;DHT22;34309;47.260;2.796;2023-05-10T14:55:56;23.70;34.50
48515;DHT22;34309;47.260;2.796;2023-05-10T14:58:29;23.60;34.20
48515;DHT22;34309;47.260;2.796;2023-05-10T15:01:05;23.70;34.20
48515;DHT22;34309;47.260;2.796;2023-05-10T15:03:39;23.70;34.20
48515;DHT22;34309;47.260;2.796;2023-05-10T15:06:14;23.70;34.20
48515;DHT22;34309;47.260;2.796;2023-05-10T15:08:48;23.70;34.20
48515;DHT22;34309;47.260;2.796;2023-05-10T15:11:21;23.70;34.20
48515;DHT22;34309;47.260;2.796;2023-05-10T15:13:55;23.70;34.20
48515;DHT22;34309;47.260;2.796;2023-05-10T15:16:30;23.70;34.20
48515;DHT22;34309;47.260;2.796;2023-05-10T15:19:03;23.70;34.20
48515;DHT22;34309;47.260;2.796;2023-05-10T15:21:37;23.70;34.20
48515;DHT22;34309;47.260;2.796;2023-05-10T15:24:09;23.70;34.20
48515;DHT22;34309;47.260;2.796;2023-05-10T15:26:43;23.70;34.10
48515;DHT22;34309;47.260;2.796;2023-05-10T15:29:17;23.80;34.00
48515;DHT22;34309;47.260;2.796;2023-05-10T15:31:53;23.80;33.80
48515;DHT22;34309;47.260;2.796;2023-05-10T15:34:28;23.70;33.70
48515;DHT22;34309;47.260;2.796;2023-05-10T15:36:57;23.80;33.60
48515;DHT22;34309;47.260;2.796;2023-05-10T15:39:30;23.70;33.40
48515;DHT22;34309;47.260;2.796;2023-05-10T15:42:05;23.70;33.30
48515;DHT22;34309;47.260;2.796;2023-05-10T15:44:39;23.80;33.30
48515;DHT22;34309;47.260;2.796;2023-05-10T15:47:14;23.80;33.20
48515;DHT22;34309;47.260;2.796;2023-05-10T15:49:47;23.80;33.10
48515;DHT22;34309;47.260;2.796;2023-05-10T15:52:21;23.80;33.10
48515;DHT22;34309;47.260;2.796;2023-05-10T15:54:55;23.80;33.00
48515;DHT22;34309;47.260;2.796;2023-05-10T15:57:29;23.80;33.10
48515;DHT22;34309;47.260;2.796;2023-05-10T16:00:03;23.80;32.90
48515;DHT22;34309;47.260;2.796;2023-05-10T16:02:39;23.80;32.70
48515;DHT22;34309;47.260;2.796;2023-05-10T16:05:13;23.80;32.60
48515;DHT22;34309;47.260;2.796;2023-05-10T16:07:43;23.80;32.50
48515;DHT22;34309;47.260;2.796;2023-05-10T16:10:18;23.80;32.60
48515;DHT22;34309;47.260;2.796;2023-05-10T16:12:52;23.70;32.60
48515;DHT22;34309;47.260;2.796;2023-05-10T16:15:26;23.70;32.30
48515;DHT22;34309;47.260;2.796;2023-05-10T16:18:02;23.70;32.30
48515;DHT22;34309;47.260;2.796;2023-05-10T16:20:36;23.70;32.00
48515;DHT22;34309;47.260;2.796;2023-05-10T16:23:10;23.70;32.00
48515;DHT22;34309;47.260;2.796;2023-05-10T16:25:46;23.70;32.10